Terminal Aerodrome Forecast
Issued by NWS Wilmington, OH

Current Version | Previous Version | Graphics & Text | Print | Product List | Glossary On
Versions: 1 2 3 4 5 6 7 8 9 10 11 12 13
514
FTUS41 KILN 221732
TAFCMH
TAF
KCMH 221732Z 2218/2318 05008KT P6SM BKN250
     FM222200 06008KT P6SM SCT250
     FM230600 08008KT P6SM BKN250
     FM231400 10012G20KT P6SM OVC200=

USA.gov is the U.S. government's official web portal to all federal, state and local government web resources and services.